createdAt,value
2018-08-20T00:01:40.039Z,99.90
2018-08-20T00:04:10.126Z,99.90
2018-08-20T00:06:53.904Z,99.90
2018-08-20T00:09:31.874Z,99.90
2018-08-20T00:12:01.097Z,99.90
2018-08-20T00:14:30.307Z,99.90
2018-08-20T00:16:59.559Z,99.90
2018-08-20T00:19:28.839Z,99.90
2018-08-20T00:21:58.066Z,99.90
2018-08-20T00:24:27.604Z,99.90
2018-08-20T00:26:59.601Z,99.90
2018-08-20T00:29:28.748Z,99.90
2018-08-20T00:31:57.889Z,99.90
2018-08-20T00:34:26.867Z,99.90
2018-08-20T00:36:56.332Z,99.90
2018-08-20T00:39:26.146Z,99.90
2018-08-20T00:41:55.654Z,99.90
2018-08-20T00:44:25.029Z,99.90
2018-08-20T00:46:54.428Z,99.90
2018-08-20T00:49:23.746Z,99.90
2018-08-20T00:51:52.917Z,99.90
2018-08-20T00:54:22.207Z,99.90
2018-08-20T00:56:51.435Z,99.90
2018-08-20T00:59:20.747Z,99.90
2018-08-20T01:01:49.887Z,99.90
2018-08-20T01:04:19.180Z,99.90
2018-08-20T01:06:48.293Z,99.90
2018-08-20T01:09:17.754Z,99.90
2018-08-20T01:11:47.124Z,99.90
2018-08-20T01:14:16.043Z,99.90
2018-08-20T01:16:45.094Z,99.90
2018-08-20T01:19:14.781Z,99.90
2018-08-20T01:21:44.718Z,99.90
2018-08-20T01:24:14.187Z,99.90
2018-08-20T01:26:43.646Z,99.90
2018-08-20T01:29:12.796Z,99.90
2018-08-20T01:31:42.083Z,99.90
2018-08-20T01:34:13.355Z,99.90
2018-08-20T01:36:43.608Z,99.90
2018-08-20T01:39:12.816Z,99.90
2018-08-20T01:41:42.165Z,99.90
2018-08-20T01:44:11.507Z,99.90
2018-08-20T01:46:40.563Z,99.90
2018-08-20T01:49:09.806Z,99.90
2018-08-20T01:51:39.149Z,99.90
2018-08-20T01:54:08.251Z,99.90
2018-08-20T01:56:37.506Z,99.90
2018-08-20T01:59:06.683Z,99.90
2018-08-20T02:01:35.896Z,99.90
2018-08-20T02:04:04.832Z,99.90
2018-08-20T02:06:34.116Z,99.90
2018-08-20T02:09:03.316Z,99.90
2018-08-20T02:11:33.483Z,99.90
2018-08-20T02:14:03.083Z,99.90
2018-08-20T02:16:32.205Z,99.90
2018-08-20T02:19:01.409Z,99.90
2018-08-20T02:21:30.685Z,99.90
2018-08-20T02:23:59.931Z,99.90
2018-08-20T02:26:29.414Z,99.90
2018-08-20T02:28:58.638Z,99.90
2018-08-20T02:31:28.076Z,99.90
2018-08-20T02:33:57.413Z,99.90
2018-08-20T02:36:26.595Z,99.90
2018-08-20T02:38:55.899Z,99.90
2018-08-20T02:41:24.987Z,99.90
2018-08-20T02:43:54.223Z,99.90
2018-08-20T02:46:34.425Z,99.90
2018-08-20T02:49:03.732Z,99.90
2018-08-20T02:51:32.944Z,99.90
2018-08-20T02:54:02.093Z,99.90
2018-08-20T02:56:31.210Z,99.90
2018-08-20T02:59:00.423Z,99.90
2018-08-20T03:01:29.605Z,99.90
2018-08-20T03:03:58.856Z,99.90
2018-08-20T03:06:28.181Z,99.90
2018-08-20T03:08:57.416Z,99.90
2018-08-20T03:11:26.961Z,99.90
2018-08-20T03:13:56.442Z,99.90
2018-08-20T03:16:25.653Z,99.90
2018-08-20T03:18:54.823Z,99.90
2018-08-20T03:21:23.961Z,99.90
2018-08-20T03:23:53.254Z,99.90
2018-08-20T03:26:22.853Z,99.90
2018-08-20T03:28:52.171Z,99.90
2018-08-20T03:31:21.397Z,99.90
2018-08-20T03:33:50.390Z,99.90
2018-08-20T03:36:20.424Z,99.90
2018-08-20T03:38:49.780Z,99.90
2018-08-20T03:41:19.272Z,99.90
2018-08-20T03:43:48.336Z,99.90
2018-08-20T03:46:17.586Z,99.90
2018-08-20T03:48:46.831Z,99.90
2018-08-20T03:51:16.169Z,99.90
2018-08-20T03:53:45.590Z,99.90
2018-08-20T03:56:14.755Z,99.90
2018-08-20T03:58:43.919Z,99.90
2018-08-20T04:01:13.111Z,99.90
2018-08-20T04:03:42.363Z,99.90
2018-08-20T04:06:12.690Z,99.90
2018-08-20T04:08:41.712Z,99.90
2018-08-20T04:11:10.965Z,99.90
2018-08-20T04:13:40.067Z,99.90
2018-08-20T04:16:09.317Z,99.90
2018-08-20T04:18:38.511Z,99.90
2018-08-20T04:21:07.716Z,99.90
2018-08-20T04:23:36.864Z,99.90
2018-08-20T04:26:06.401Z,99.90
2018-08-20T04:28:35.603Z,99.90
2018-08-20T04:31:05.113Z,99.90
2018-08-20T04:33:34.377Z,99.90
2018-08-20T04:36:03.299Z,99.90
2018-08-20T04:38:32.656Z,99.90
2018-08-20T04:41:01.991Z,99.90
2018-08-20T04:43:31.045Z,99.90
2018-08-20T04:46:00.500Z,99.90
2018-08-20T04:48:30.013Z,99.90
2018-08-20T04:50:59.380Z,99.90
2018-08-20T04:53:28.608Z,99.90
2018-08-20T04:55:57.949Z,99.90
2018-08-20T04:58:27.100Z,99.90
2018-08-20T05:00:56.499Z,99.90
2018-08-20T05:03:26.025Z,99.90
2018-08-20T05:05:55.153Z,99.90
2018-08-20T05:08:24.395Z,99.90
2018-08-20T05:10:53.594Z,99.90
2018-08-20T05:13:22.647Z,99.90
2018-08-20T05:15:52.115Z,99.90
2018-08-20T05:18:21.269Z,99.90
2018-08-20T05:20:50.483Z,99.90
2018-08-20T05:23:19.649Z,99.90
2018-08-20T05:25:48.926Z,99.90
2018-08-20T05:28:18.148Z,99.90
2018-08-20T05:30:47.273Z,99.90
2018-08-20T05:33:16.440Z,99.90
2018-08-20T05:35:46.496Z,99.90
2018-08-20T05:38:15.631Z,99.90
2018-08-20T05:40:44.968Z,99.90
2018-08-20T05:43:14.627Z,99.90
2018-08-20T05:45:43.907Z,99.90
2018-08-20T05:48:13.388Z,99.90
2018-08-20T05:50:42.544Z,99.90
2018-08-20T05:53:12.002Z,99.90
2018-08-20T05:55:41.326Z,99.90
2018-08-20T05:58:10.455Z,99.90
2018-08-20T06:00:39.456Z,99.90
2018-08-20T06:03:08.834Z,99.90
2018-08-20T06:05:37.956Z,99.90
2018-08-20T06:08:07.057Z,99.90
2018-08-20T06:10:36.180Z,99.90
2018-08-20T06:13:05.381Z,99.90
2018-08-20T06:15:34.521Z,99.90
2018-08-20T06:18:03.892Z,99.90
2018-08-20T06:20:32.933Z,99.90
2018-08-20T06:23:02.291Z,99.90
2018-08-20T06:25:32.663Z,99.90
2018-08-20T06:28:01.912Z,99.90
2018-08-20T06:30:31.083Z,99.90
2018-08-20T06:33:00.406Z,99.90
2018-08-20T06:35:29.871Z,99.90
2018-08-20T06:37:59.142Z,99.90
2018-08-20T06:40:29.062Z,99.90
2018-08-20T06:42:58.406Z,99.90
2018-08-20T06:45:28.089Z,99.90
2018-08-20T06:47:57.263Z,99.90
2018-08-20T06:50:26.504Z,99.90
2018-08-20T06:52:55.705Z,99.90
2018-08-20T06:55:25.212Z,99.90
2018-08-20T06:57:54.277Z,99.90
2018-08-20T07:00:23.746Z,99.90
2018-08-20T07:02:53.032Z,99.90
2018-08-20T07:05:22.160Z,99.90
2018-08-20T07:07:51.120Z,99.90
2018-08-20T07:10:20.204Z,99.90
2018-08-20T07:12:49.285Z,99.90
2018-08-20T07:15:18.506Z,99.90
2018-08-20T07:17:47.919Z,99.90
2018-08-20T07:20:17.168Z,99.90
2018-08-20T07:22:46.322Z,99.90
2018-08-20T07:25:15.924Z,99.90
2018-08-20T07:27:45.321Z,99.90
2018-08-20T07:30:14.706Z,99.90
2018-08-20T07:32:43.888Z,99.90
2018-08-20T07:35:13.343Z,99.90
2018-08-20T07:37:42.456Z,99.90
2018-08-20T07:40:11.576Z,99.90
2018-08-20T07:42:40.800Z,99.90
2018-08-20T07:45:10.080Z,99.90
2018-08-20T07:47:39.201Z,99.90
2018-08-20T07:50:08.741Z,99.90
2018-08-20T07:52:37.887Z,99.90
2018-08-20T07:55:07.308Z,99.90
2018-08-20T07:57:36.865Z,99.90
2018-08-20T08:00:07.964Z,99.90
2018-08-20T08:02:37.617Z,99.90
2018-08-20T08:05:07.929Z,99.90
2018-08-20T08:07:37.452Z,99.90
2018-08-20T08:10:08.314Z,99.90
2018-08-20T08:12:38.111Z,99.90
2018-08-20T08:15:08.552Z,99.90
2018-08-20T08:17:37.728Z,99.90
2018-08-20T08:20:08.226Z,99.90
2018-08-20T08:22:38.107Z,99.90
2018-08-20T08:25:07.383Z,99.90
2018-08-20T08:27:36.700Z,99.90
2018-08-20T08:30:09.679Z,99.90
2018-08-20T08:32:38.862Z,99.90
2018-08-20T08:35:08.477Z,99.90
2018-08-20T08:37:37.675Z,99.90
2018-08-20T08:40:06.941Z,99.90
2018-08-20T08:42:36.494Z,99.90
2018-08-20T08:45:07.610Z,99.90
2018-08-20T08:47:37.030Z,99.90
2018-08-20T08:50:06.373Z,99.90
2018-08-20T08:52:35.951Z,99.90
2018-08-20T08:55:05.497Z,99.90
2018-08-20T08:57:34.937Z,99.90
2018-08-20T09:00:05.016Z,99.90
2018-08-20T09:02:34.429Z,99.90
2018-08-20T09:05:03.703Z,99.90
2018-08-20T09:07:32.804Z,99.90
2018-08-20T09:10:02.544Z,99.90
2018-08-20T09:12:32.467Z,99.90
2018-08-20T09:15:01.503Z,99.90
2018-08-20T09:17:30.719Z,99.90
2018-08-20T09:20:00.292Z,99.90
2018-08-20T09:22:29.764Z,99.90
2018-08-20T09:24:59.716Z,99.90
2018-08-20T09:27:28.859Z,99.90
2018-08-20T09:29:58.079Z,99.90
2018-08-20T09:32:27.653Z,99.90
2018-08-20T09:34:56.929Z,99.90
2018-08-20T09:37:26.521Z,99.90
2018-08-20T09:39:56.144Z,99.90
2018-08-20T09:42:26.471Z,99.90
2018-08-20T09:44:55.963Z,99.90
2018-08-20T09:47:25.356Z,99.90
2018-08-20T09:49:54.585Z,99.90
2018-08-20T09:52:23.907Z,99.90
2018-08-20T09:54:52.928Z,99.90
2018-08-20T09:57:22.607Z,99.90
2018-08-20T09:59:51.928Z,99.90
2018-08-20T10:02:21.243Z,99.90
2018-08-20T10:04:50.428Z,96.30
2018-08-20T10:07:19.624Z,96.20
2018-08-20T10:09:49.180Z,94.10
2018-08-20T10:12:18.544Z,96.20
2018-08-20T10:14:48.491Z,94.70
2018-08-20T10:17:18.216Z,92.20
2018-08-20T10:19:47.764Z,91.50
2018-08-20T10:22:17.340Z,95.40
2018-08-20T10:24:46.589Z,94.00
2018-08-20T10:27:15.888Z,95.30
2018-08-20T10:29:45.230Z,95.60
2018-08-20T10:32:15.124Z,92.00
2018-08-20T10:34:44.501Z,93.90
2018-08-20T10:37:13.924Z,94.70
2018-08-20T10:39:43.480Z,93.90
2018-08-20T10:42:13.317Z,88.80
2018-08-20T10:44:47.907Z,91.50
2018-08-20T10:47:18.319Z,88.70
2018-08-20T10:49:47.906Z,84.00
2018-08-20T10:52:18.023Z,79.60
2018-08-20T10:54:47.524Z,80.00
2018-08-20T10:57:17.492Z,78.10
2018-08-20T10:59:47.124Z,86.90
2018-08-20T11:02:16.997Z,90.80
2018-08-20T11:04:46.358Z,91.60
2018-08-20T11:07:15.670Z,82.70
2018-08-20T11:09:44.843Z,84.00
2018-08-20T11:12:14.309Z,87.80
2018-08-20T11:14:43.873Z,90.20
2018-08-20T11:17:13.392Z,93.30
2018-08-20T11:19:43.092Z,93.00
2018-08-20T11:22:14.366Z,84.80
2018-08-20T11:24:44.084Z,87.30
2018-08-20T11:27:13.342Z,79.40
2018-08-20T11:29:42.745Z,78.30
2018-08-20T11:32:12.004Z,87.30
2018-08-20T11:34:41.655Z,77.40
2018-08-20T11:37:17.230Z,76.60
2018-08-20T11:39:46.651Z,78.20
2018-08-20T11:42:16.164Z,78.00
2018-08-20T11:44:45.894Z,74.70
2018-08-20T11:47:15.067Z,79.80
2018-08-20T11:49:47.562Z,78.00
2018-08-20T11:52:17.687Z,74.30
2018-08-20T11:54:47.385Z,73.40
2018-08-20T11:57:18.515Z,72.70
2018-08-20T11:59:51.851Z,80.00
2018-08-20T12:02:23.156Z,69.30
2018-08-20T12:04:52.516Z,72.50
2018-08-20T12:07:25.832Z,72.30
2018-08-20T12:10:00.037Z,67.20
2018-08-20T12:12:29.423Z,72.30
2018-08-20T12:17:27.512Z,65.20
2018-08-20T12:19:57.715Z,67.90
2018-08-20T12:22:27.116Z,69.60
2018-08-20T12:24:56.191Z,65.90
2018-08-20T12:27:25.453Z,62.50
2018-08-20T12:29:54.598Z,67.20
2018-08-20T12:32:24.388Z,65.50
2018-08-20T12:34:53.725Z,67.70
2018-08-20T12:37:23.205Z,69.70
2018-08-20T12:39:52.589Z,68.70
2018-08-20T12:42:21.808Z,69.80
2018-08-20T12:44:51.189Z,70.40
2018-08-20T12:47:20.453Z,70.80
2018-08-20T12:49:49.666Z,73.30
2018-08-20T12:52:19.279Z,70.50
2018-08-20T12:54:48.772Z,70.30
2018-08-20T12:57:17.742Z,70.40
2018-08-20T12:59:47.144Z,68.80
2018-08-20T13:02:16.481Z,68.20
2018-08-20T13:04:45.605Z,69.30
2018-08-20T13:07:14.972Z,69.80
2018-08-20T13:09:44.145Z,72.70
2018-08-20T13:12:14.692Z,72.30
2018-08-20T13:14:44.193Z,67.50
2018-08-20T13:17:14.148Z,68.50
2018-08-20T13:19:43.663Z,72.00
2018-08-20T13:22:13.870Z,72.70
2018-08-20T13:24:43.172Z,73.40
2018-08-20T13:27:12.476Z,75.00
2018-08-20T13:29:41.891Z,69.50
2018-08-20T13:32:11.844Z,68.90
2018-08-20T13:34:44.309Z,70.30
2018-08-20T13:37:14.269Z,73.10
2018-08-20T13:39:44.969Z,74.20
2018-08-20T13:42:14.634Z,74.90
2018-08-20T13:44:45.289Z,70.30
2018-08-20T13:47:17.115Z,71.90
2018-08-20T13:49:46.325Z,67.90
2018-08-20T13:52:15.924Z,68.90
2018-08-20T13:54:45.050Z,67.10
2018-08-20T13:57:14.327Z,66.10
2018-08-20T13:59:43.521Z,70.80
2018-08-20T14:02:12.718Z,68.40
2018-08-20T14:04:41.957Z,70.50
2018-08-20T14:07:11.290Z,72.20
2018-08-20T14:09:40.658Z,76.10
2018-08-20T14:12:10.011Z,66.70
2018-08-20T14:14:39.477Z,66.70
2018-08-20T14:17:08.695Z,66.50
2018-08-20T14:19:38.065Z,69.90
2018-08-20T14:22:07.137Z,69.70
2018-08-20T14:24:36.431Z,67.20
2018-08-20T14:27:06.532Z,69.10
2018-08-20T14:29:36.044Z,76.70
2018-08-20T14:32:05.627Z,73.30
2018-08-20T14:34:34.879Z,77.70
2018-08-20T14:37:03.949Z,80.30
2018-08-20T14:39:33.066Z,82.80
2018-08-20T14:42:02.340Z,83.60
2018-08-20T14:44:31.493Z,84.20
2018-08-20T14:47:01.100Z,87.40
2018-08-20T14:49:30.829Z,88.90
2018-08-20T14:51:59.905Z,93.00
2018-08-20T14:54:29.421Z,98.10
2018-08-20T14:56:58.637Z,96.80
2018-08-20T14:59:28.197Z,99.90
2018-08-20T15:01:57.681Z,99.90
2018-08-20T15:04:27.236Z,99.90
2018-08-20T15:07:03.129Z,99.90
2018-08-20T15:09:32.710Z,99.90
2018-08-20T15:12:01.752Z,99.90
2018-08-20T15:14:31.178Z,99.90
2018-08-20T15:17:01.401Z,99.90
2018-08-20T15:19:31.129Z,99.90
2018-08-20T15:22:00.522Z,99.90
2018-08-20T15:24:30.461Z,99.90
2018-08-20T15:26:59.745Z,99.90
2018-08-20T15:29:28.919Z,99.90
2018-08-20T15:31:58.330Z,99.90
2018-08-20T15:34:31.096Z,99.90
2018-08-20T15:37:00.444Z,99.90
2018-08-20T15:39:31.891Z,99.90
2018-08-20T15:42:01.113Z,99.90
2018-08-20T15:44:30.588Z,99.90
2018-08-20T15:46:59.875Z,99.90
2018-08-20T15:49:29.377Z,99.90
2018-08-20T15:52:00.426Z,99.90
2018-08-20T15:54:29.830Z,99.90
2018-08-20T15:56:59.383Z,99.90
2018-08-20T15:59:28.860Z,99.90
2018-08-20T16:01:58.148Z,99.90
2018-08-20T16:04:28.521Z,99.90
2018-08-20T16:06:57.773Z,99.90
2018-08-20T16:09:27.473Z,99.90
2018-08-20T16:11:57.178Z,99.90
2018-08-20T16:14:26.659Z,99.90
2018-08-20T16:16:55.760Z,99.90
2018-08-20T16:19:25.120Z,99.90
2018-08-20T16:21:54.587Z,99.90
2018-08-20T16:24:23.764Z,99.90
2018-08-20T16:26:53.180Z,99.90
2018-08-20T16:29:22.461Z,99.90
2018-08-20T16:31:52.725Z,99.90
2018-08-20T16:34:22.106Z,99.90
2018-08-20T16:36:51.599Z,99.90
2018-08-20T16:39:20.904Z,99.90
2018-08-20T16:41:50.677Z,99.90
2018-08-20T16:44:19.944Z,99.90
2018-08-20T16:46:49.323Z,99.90
2018-08-20T16:49:19.012Z,99.90
2018-08-20T16:51:48.777Z,99.90
2018-08-20T16:54:18.476Z,99.90
2018-08-20T16:56:48.201Z,99.90
2018-08-20T16:59:17.711Z,99.90
2018-08-20T17:01:47.009Z,99.90
2018-08-20T17:04:29.739Z,99.90
2018-08-20T17:07:00.312Z,99.90
2018-08-20T17:09:30.025Z,99.90
2018-08-20T17:11:59.722Z,99.90
2018-08-20T17:14:29.045Z,99.90
2018-08-20T17:16:59.018Z,99.90
2018-08-20T17:19:28.481Z,99.90
2018-08-20T17:21:57.795Z,99.90
2018-08-20T17:24:32.583Z,99.90
2018-08-20T17:27:02.650Z,99.90
2018-08-20T17:29:32.213Z,99.90
2018-08-20T17:32:03.424Z,99.90
2018-08-20T17:34:32.596Z,99.90
2018-08-20T17:37:01.803Z,99.90
2018-08-20T17:39:31.018Z,99.90
2018-08-20T17:42:00.307Z,99.90
2018-08-20T17:44:29.592Z,99.90
2018-08-20T17:46:59.431Z,99.90
2018-08-20T17:49:30.569Z,99.90
2018-08-20T17:52:00.076Z,99.90
2018-08-20T17:54:30.844Z,99.90
2018-08-20T17:57:00.991Z,99.90
2018-08-20T17:59:30.382Z,99.90
2018-08-20T18:01:59.664Z,99.90
2018-08-20T18:04:29.585Z,99.90
2018-08-20T18:06:59.238Z,99.90
2018-08-20T18:09:29.310Z,99.90
2018-08-20T18:11:59.038Z,99.90
2018-08-20T18:14:29.368Z,99.90
2018-08-20T18:16:59.153Z,99.90
2018-08-20T18:19:30.299Z,99.90
2018-08-20T18:22:00.410Z,99.90
2018-08-20T18:24:29.865Z,99.90
2018-08-20T18:27:00.024Z,99.90
2018-08-20T18:29:29.949Z,99.90
2018-08-20T18:32:01.813Z,99.90
2018-08-20T18:34:31.195Z,99.90
2018-08-20T18:37:04.308Z,99.90
2018-08-20T18:39:33.837Z,99.90
2018-08-20T18:42:16.946Z,99.90
2018-08-20T18:44:47.521Z,99.90
2018-08-20T18:47:18.483Z,99.90
2018-08-20T18:49:53.278Z,99.90
2018-08-20T18:52:23.955Z,99.90
2018-08-20T18:54:54.585Z,99.90
2018-08-20T18:57:26.321Z,99.90
2018-08-20T18:59:57.962Z,99.90
2018-08-20T19:03:02.727Z,99.90
2018-08-20T19:05:44.323Z,99.90
2018-08-20T19:08:19.882Z,99.90
2018-08-20T19:10:50.012Z,99.90
2018-08-20T19:13:20.504Z,99.90
2018-08-20T19:15:51.617Z,99.90
2018-08-20T19:18:31.264Z,99.90
2018-08-20T19:21:05.933Z,99.90
2018-08-20T19:23:37.230Z,99.90
2018-08-20T19:26:08.746Z,99.90
2018-08-20T19:28:38.546Z,99.90
2018-08-20T19:31:07.916Z,99.90
2018-08-20T19:33:38.109Z,99.90
2018-08-20T19:36:09.621Z,99.90
2018-08-20T19:38:39.404Z,99.90
2018-08-20T19:41:13.300Z,99.90
2018-08-20T19:43:48.818Z,99.90
2018-08-20T19:46:33.509Z,99.90
2018-08-20T19:49:08.024Z,99.90
2018-08-20T19:54:16.942Z,99.90
2018-08-20T19:56:46.162Z,99.90
2018-08-20T19:59:26.665Z,99.90
2018-08-20T20:01:56.868Z,99.90
2018-08-20T20:04:27.415Z,99.90
2018-08-20T20:06:57.752Z,99.90
2018-08-20T20:09:27.586Z,99.90
2018-08-20T20:11:57.384Z,99.90
2018-08-20T20:14:33.576Z,99.90
2018-08-20T20:17:03.258Z,99.90
2018-08-20T20:19:32.684Z,99.90
2018-08-20T20:22:02.117Z,99.90
2018-08-20T20:24:32.664Z,99.90
2018-08-20T20:27:02.038Z,99.90
2018-08-20T20:29:39.903Z,99.90
2018-08-20T20:32:10.529Z,99.90
2018-08-20T20:34:42.595Z,99.90
2018-08-20T20:37:13.723Z,99.90
2018-08-20T20:39:47.377Z,99.90
2018-08-20T20:42:17.272Z,99.90
2018-08-20T20:44:46.867Z,99.90
2018-08-20T20:47:16.369Z,99.90
2018-08-20T20:49:46.048Z,99.90
2018-08-20T20:52:15.640Z,99.90
2018-08-20T20:54:44.766Z,99.90
2018-08-20T20:57:14.007Z,99.90
2018-08-20T20:59:43.599Z,99.90
2018-08-20T21:02:13.862Z,99.90
2018-08-20T21:04:43.393Z,99.90
2018-08-20T21:07:17.121Z,99.90
2018-08-20T21:09:48.164Z,99.90
2018-08-20T21:12:18.773Z,99.90
2018-08-20T21:14:48.629Z,99.90
2018-08-20T21:17:18.205Z,99.90
2018-08-20T21:19:47.633Z,99.90
2018-08-20T21:22:18.010Z,99.90
2018-08-20T21:24:47.378Z,99.90
2018-08-20T21:27:26.752Z,99.90
2018-08-20T21:30:00.446Z,99.90
2018-08-20T21:32:30.012Z,99.90
2018-08-20T21:35:00.441Z,99.90
2018-08-20T21:37:30.024Z,99.90
2018-08-20T21:39:59.432Z,99.90
2018-08-20T21:42:33.617Z,99.90
2018-08-20T21:45:03.008Z,99.90
2018-08-20T21:47:32.688Z,99.90
2018-08-20T21:50:01.911Z,99.90
2018-08-20T21:52:31.446Z,99.90
2018-08-20T21:55:01.123Z,99.90
2018-08-20T21:57:30.257Z,99.90
2018-08-20T22:00:06.006Z,99.90
2018-08-20T22:02:35.108Z,99.90
2018-08-20T22:05:04.148Z,99.90
2018-08-20T22:07:36.088Z,99.90
2018-08-20T22:10:05.559Z,99.90
2018-08-20T22:12:35.041Z,99.90
2018-08-20T22:15:04.547Z,99.90
2018-08-20T22:17:34.804Z,99.90
2018-08-20T22:20:04.213Z,99.90
2018-08-20T22:22:33.413Z,99.90
2018-08-20T22:25:02.872Z,99.90
2018-08-20T22:28:02.690Z,99.90
2018-08-20T22:30:35.044Z,99.90
2018-08-20T22:33:04.550Z,99.90
2018-08-20T22:35:33.857Z,99.90
2018-08-20T22:38:03.220Z,99.90
2018-08-20T22:40:32.499Z,99.90
2018-08-20T22:43:01.593Z,99.90
2018-08-20T22:45:30.673Z,99.90
2018-08-20T22:47:59.936Z,99.90
2018-08-20T22:50:29.048Z,99.90
2018-08-20T22:52:58.451Z,99.90
2018-08-20T22:55:27.644Z,99.90
2018-08-20T22:58:07.784Z,99.90
2018-08-20T23:00:37.224Z,99.90
2018-08-20T23:03:06.683Z,99.90
2018-08-20T23:05:36.067Z,99.90
2018-08-20T23:08:17.843Z,99.90
2018-08-20T23:10:47.201Z,99.90
2018-08-20T23:13:16.303Z,99.90
2018-08-20T23:15:45.584Z,99.90
2018-08-20T23:18:14.682Z,99.90
2018-08-20T23:20:45.820Z,99.90
2018-08-20T23:23:19.223Z,99.90
2018-08-20T23:25:48.724Z,99.90
2018-08-20T23:28:18.026Z,99.90
2018-08-20T23:30:51.967Z,99.90
2018-08-20T23:33:21.325Z,99.90
2018-08-20T23:35:50.263Z,99.90
2018-08-20T23:38:19.503Z,99.90
2018-08-20T23:40:48.720Z,99.90
2018-08-20T23:43:18.072Z,99.90
2018-08-20T23:45:47.251Z,99.90
2018-08-20T23:48:16.553Z,99.90
2018-08-20T23:50:53.890Z,99.90
2018-08-20T23:53:22.915Z,99.90
2018-08-20T23:55:51.995Z,99.90
2018-08-20T23:58:21.849Z,99.90
